Time;durP1;ratioP1;P1;durP2;ratioP2;P2;SDS_P1;SDS_P2;PMS_P1;PMS_P2;Temp;Humidity;BMP_temperature;BMP_pressure;BME280_temperature;BME280_humidity;BME280_pressure;Samples;Min_cycle;Max_cycle;Signal;HPM_P1;HPM_P2
2021/07/04 00:01:26;;;;;;;15.50;11.80;;;;;;;18.71;76.56;99645.00;126679;1089;102878;-81
2021/07/04 00:04:14;;;;;;;14.40;12.33;;;;;;;18.67;76.47;99643.55;126697;1090;114651;-81
2021/07/04 00:07:03;;;;;;;13.57;11.70;;;;;;;18.64;76.63;99643.75;126702;1090;102971;-79
2021/07/04 00:09:51;;;;;;;12.50;11.17;;;;;;;18.61;76.65;99638.67;126653;1089;114476;-80
2021/07/04 00:12:39;;;;;;;13.40;12.00;;;;;;;18.58;76.85;99633.63;126877;1090;102873;-81
2021/07/04 00:15:30;;;;;;;13.57;12.17;;;;;;;18.58;77.25;99636.27;126562;1090;114602;-81
2021/07/04 00:18:21;;;;;;;14.90;12.87;;;;;;;18.62;76.80;99640.36;126824;1088;102936;-79
2021/07/04 00:21:09;;;;;;;15.77;12.70;;;;;;;18.65;76.87;99640.16;126687;1090;114633;-79
2021/07/04 00:23:58;;;;;;;19.53;12.70;;;;;;;18.65;76.89;99634.88;126713;1090;105089;-79
2021/07/04 00:26:46;;;;;;;16.70;13.17;;;;;;;18.69;76.99;99624.94;126582;1089;114738;-79
2021/07/04 00:29:34;;;;;;;19.30;13.93;;;;;;;18.70;77.19;99627.47;126709;1090;102868;-79
2021/07/04 00:32:23;;;;;;;15.60;13.53;;;;;;;18.72;76.83;99629.99;126813;1090;102877;-79
2021/07/04 00:35:13;;;;;;;16.17;13.23;;;;;;;18.75;76.86;99626.27;126601;1089;114560;-80
2021/07/04 00:38:03;;;;;;;18.75;13.05;;;;;;;18.74;76.87;99619.30;126724;1090;102666;-79
2021/07/04 00:40:51;;;;;;;20.30;14.23;;;;;;;18.72;76.73;99619.42;126689;1088;114491;-80
2021/07/04 00:43:39;;;;;;;18.63;14.70;;;;;;;18.72;76.90;99619.42;126740;1090;103346;-80
2021/07/04 00:46:30;;;;;;;18.17;14.67;;;;;;;18.68;76.76;99612.70;126722;1089;114467;-80
2021/07/04 00:49:19;;;;;;;17.60;14.00;;;;;;;18.66;77.12;99615.42;126721;1090;102885;-80
2021/07/04 00:52:08;;;;;;;20.87;14.30;;;;;;;18.63;76.65;99609.54;126765;1090;114478;-80
2021/07/04 00:54:57;;;;;;;17.93;14.13;;;;;;;18.61;77.15;99612.27;126790;1089;103388;-79
2021/07/04 00:57:46;;;;;;;18.40;14.23;;;;;;;18.60;77.25;99609.74;126579;1090;114473;-79
2021/07/04 01:00:38;;;;;;;17.67;15.20;;;;;;;18.61;77.20;99606.14;126759;1089;102863;-79
2021/07/04 01:03:27;;;;;;;15.57;13.93;;;;;;;18.56;77.34;99614.42;126634;1090;114671;-80
2021/07/04 01:06:16;;;;;;;19.07;14.23;;;;;;;18.54;77.27;99611.05;126699;1090;102975;-79
2021/07/04 01:09:04;;;;;;;18.50;14.67;;;;;;;18.54;77.29;99612.86;126648;1090;113596;-79
2021/07/04 01:11:53;;;;;;;22.00;15.55;;;;;;;18.59;77.32;99608.06;126692;1088;102937;-79
2021/07/04 01:14:42;;;;;;;19.10;16.43;;;;;;;18.59;77.57;99606.27;126800;1089;102898;-80
2021/07/04 01:17:34;;;;;;;19.53;15.17;;;;;;;18.58;77.43;99609.02;126723;1090;114461;-79
2021/07/04 01:20:26;;;;;;;16.87;14.60;;;;;;;18.55;77.53;99610.09;126791;1088;102969;-79
2021/07/04 01:23:16;;;;;;;18.40;14.50;;;;;;;18.55;77.56;99610.09;126671;1090;114451;-79
2021/07/04 01:26:05;;;;;;;25.10;16.87;;;;;;;18.57;77.59;99602.89;126714;1089;102856;-79
2021/07/04 01:28:53;;;;;;;19.67;16.70;;;;;;;18.55;77.37;99607.45;126583;1089;114461;-79
2021/07/04 01:31:43;;;;;;;17.77;15.77;;;;;;;18.51;77.60;99600.73;126694;1090;103121;-79
2021/07/04 01:34:34;;;;;;;18.27;15.67;;;;;;;18.53;77.87;99613.81;126644;1088;114568;-80
2021/07/04 01:37:22;;;;;;;20.80;14.65;;;;;;;18.51;77.68;99610.45;126857;1089;102901;-79
2021/07/04 01:40:13;;;;;;;18.33;16.13;;;;;;;18.49;77.99;99604.41;126633;1090;114451;-79
2021/07/04 01:43:04;;;;;;;19.50;16.53;;;;;;;18.48;77.81;99605.38;126735;1090;102855;-79
2021/07/04 01:45:53;;;;;;;20.63;15.67;;;;;;;18.47;77.93;99612.45;126778;1090;114599;-79
2021/07/04 01:48:42;;;;;;;18.73;15.70;;;;;;;18.47;77.82;99612.45;126772;1090;102859;-80
2021/07/04 01:51:33;;;;;;;19.73;16.07;;;;;;;18.46;78.07;99610.77;126554;1090;114642;-79
2021/07/04 01:54:22;;;;;;;19.27;16.73;;;;;;;18.50;78.12;99609.61;126725;1089;102927;-79
2021/07/04 01:57:13;;;;;;;19.87;17.10;;;;;;;18.50;77.64;99616.69;126780;1090;102848;-79
2021/07/04 02:00:25;;;;;;;19.93;16.50;;;;;;;18.46;77.88;99621.33;126842;1090;104077;-79
2021/07/04 02:03:33;;;;;;;22.70;16.20;;;;;;;18.42;78.15;99617.24;126742;1090;102919;-79
2021/07/04 02:06:25;;;;;;;19.90;16.45;;;;;;;18.42;78.01;99615.45;126676;1089;102072;-79
2021/07/04 02:09:33;;;;;;;23.83;18.05;;;;;;;18.40;78.09;99614.72;126735;1089;101455;-79
2021/07/04 02:12:40;;;;;;;23.93;17.77;;;;;;;18.42;78.32;99607.52;126531;1089;114378;-79
2021/07/04 02:15:33;;;;;;;22.40;16.77;;;;;;;18.42;78.51;99609.32;126810;1089;102934;-79
2021/07/04 02:18:42;;;;;;;22.50;17.50;;;;;;;18.40;78.29;99611.23;126605;1090;114326;-79
2021/07/04 02:21:53;;;;;;;22.43;16.70;;;;;;;18.39;78.56;99604.27;126675;1090;102849;-79
2021/07/04 02:25:03;;;;;;;21.70;18.17;;;;;;;18.40;79.20;99604.16;126697;1090;102916;-79
2021/07/04 02:28:20;;;;;;;25.47;17.80;;;;;;;18.43;78.67;99606.56;126847;1090;102892;-80
2021/07/04 02:31:08;;;;;;;18.57;16.57;;;;;;;18.42;78.70;99609.32;126592;1090;114238;-79
2021/07/04 02:34:16;;;;;;;19.87;17.00;;;;;;;18.41;78.72;99607.64;126606;1090;102898;-79
2021/07/04 02:37:11;;;;;;;23.57;18.17;;;;;;;18.46;78.83;99609.93;126625;1088;114490;-79
2021/07/04 02:40:11;;;;;;;23.33;18.73;;;;;;;18.49;78.64;99614.97;126675;1090;102937;-79
2021/07/04 02:43:04;;;;;;;22.63;18.80;;;;;;;18.49;78.64;99614.97;126487;1090;114638;-79
2021/07/04 02:46:13;;;;;;;21.80;17.63;;;;;;;18.43;78.67;99608.36;126817;1090;102842;-79
2021/07/04 02:49:04;;;;;;;20.93;17.50;;;;;;;18.42;78.83;99611.96;126589;1089;113983;-79
2021/07/04 02:52:12;;;;;;;21.27;17.37;;;;;;;18.45;78.90;99617.01;126675;1090;102862;-79
2021/07/04 02:55:22;;;;;;;22.43;17.93;;;;;;;18.46;78.69;99617.84;126574;1089;114825;-79
2021/07/04 02:58:29;;;;;;;25.57;18.70;;;;;;;18.45;79.01;99622.29;126688;1089;102919;-79
2021/07/04 03:01:37;;;;;;;22.70;17.73;;;;;;;18.45;79.23;99626.73;126663;1089;113364;-79
2021/07/04 03:04:25;;;;;;;22.50;18.65;;;;;;;18.46;79.27;99623.97;126608;1088;102657;-79
2021/07/04 03:07:35;;;;;;;20.37;17.00;;;;;;;18.47;78.99;99623.02;126653;1090;113631;-79
2021/07/04 03:10:42;;;;;;;22.47;17.60;;;;;;;18.46;79.21;99618.69;126726;1089;102895;-80
2021/07/04 03:13:31;;;;;;;23.10;19.17;;;;;;;18.49;79.00;99626.41;126561;1089;114579;-81
2021/07/04 03:16:38;;;;;;;21.45;17.23;;;;;;;18.47;78.99;99622.17;126719;1089;103055;-81
2021/07/04 03:19:46;;;;;;;21.10;17.13;;;;;;;18.49;79.10;99634.33;126610;1089;113366;-81
2021/07/04 03:22:37;;;;;;;22.77;17.57;;;;;;;18.49;79.13;99629.05;126684;1090;102875;-81
2021/07/04 03:25:27;;;;;;;19.80;16.67;;;;;;;18.48;79.18;99635.26;126574;1089;114613;-80
2021/07/04 03:28:32;;;;;;;24.50;19.00;;;;;;;18.49;79.21;99644.89;126842;1090;102876;-80
2021/07/04 03:31:58;;;;;;;20.60;16.70;;;;;;;18.46;79.06;99647.73;126604;1090;114539;-81
2021/07/04 03:34:49;;;;;;;21.63;16.40;;;;;;;18.47;79.28;99646.78;126750;1090;102785;-80
2021/07/04 03:37:39;;;;;;;21.03;17.20;;;;;;;18.50;79.23;99657.14;126710;1088;114516;-81
2021/07/04 03:40:32;;;;;;;22.13;17.03;;;;;;;18.53;79.08;99645.50;126669;1089;102877;-81
2021/07/04 03:43:30;;;;;;;21.90;17.03;;;;;;;18.51;79.01;99655.34;126556;1089;114570;-81
2021/07/04 03:46:20;;;;;;;18.73;16.37;;;;;;;18.57;79.36;99653.08;126681;1089;102843;-81
2021/07/04 03:49:10;;;;;;;18.70;16.30;;;;;;;18.61;79.38;99643.95;126562;1090;114494;-81
2021/07/04 03:52:05;;;;;;;21.30;17.00;;;;;;;18.67;79.12;99647.96;126703;1089;101094;-81
2021/07/04 03:54:55;;;;;;;20.53;16.77;;;;;;;18.73;79.41;99646.68;126574;1090;114722;-81
2021/07/04 03:57:47;;;;;;;19.90;16.90;;;;;;;18.78;79.15;99649.81;126564;1090;103120;-81
2021/07/04 04:00:39;;;;;;;20.37;16.70;;;;;;;18.77;78.87;99656.89;126600;1088;114562;-81
2021/07/04 04:03:37;;;;;;;21.27;16.13;;;;;;;18.78;78.73;99650.65;126706;1088;101054;-81
2021/07/04 04:06:27;;;;;;;20.80;17.50;;;;;;;18.81;78.87;99649.57;126716;1089;114658;-81
2021/07/04 04:09:22;;;;;;;23.67;17.57;;;;;;;18.85;79.39;99653.66;126728;1088;103739;-81
2021/07/04 04:12:19;;;;;;;19.25;16.25;;;;;;;18.85;78.89;99653.66;126647;1089;113630;-81
2021/07/04 04:15:09;;;;;;;21.60;17.17;;;;;;;18.83;78.84;99651.14;126710;1090;102897;-80
2021/07/04 04:17:59;;;;;;;19.13;15.97;;;;;;;18.87;78.68;99659.70;126494;1090;114655;-81
2021/07/04 04:20:47;;;;;;;19.50;16.40;;;;;;;18.91;78.73;99655.86;126684;1089;101859;-81
2021/07/04 04:23:36;;;;;;;22.07;16.03;;;;;;;18.91;78.54;99654.05;126617;1089;114829;-81
2021/07/04 04:26:26;;;;;;;20.47;16.63;;;;;;;18.90;78.61;99648.89;126713;1090;102939;-81
2021/07/04 04:29:17;;;;;;;18.97;16.07;;;;;;;18.94;78.56;99655.63;126661;1089;102865;-81
2021/07/04 04:32:06;;;;;;;22.03;16.07;;;;;;;18.96;78.85;99654.54;126520;1089;113323;-81
2021/07/04 04:34:54;;;;;;;21.50;16.97;;;;;;;18.94;78.34;99656.46;126656;1090;103387;-81
2021/07/04 04:37:41;;;;;;;20.07;16.10;;;;;;;18.95;78.33;99649.38;126511;1089;113607;-81
2021/07/04 04:40:29;;;;;;;23.17;15.70;;;;;;;18.96;78.60;99648.41;126633;1089;102872;-81
2021/07/04 04:43:16;;;;;;;19.60;15.70;;;;;;;18.97;78.60;99642.17;126589;1089;115055;-80
2021/07/04 04:46:04;;;;;;;19.40;16.27;;;;;;;18.97;78.52;99650.09;126817;1089;102951;-81
2021/07/04 04:48:52;;;;;;;19.23;15.50;;;;;;;18.99;78.56;99650.81;126570;1089;113681;-81
2021/07/04 04:51:40;;;;;;;;;;;;;;;19.01;78.70;99651.54;126742;1090;102885;-81
2021/07/04 04:54:28;;;;;;;20.28;16.15;;;;;;;19.00;78.70;99641.93;126521;1090;102919;-81
2021/07/04 04:57:15;;;;;;;20.00;15.07;;;;;;;19.07;78.64;99645.80;126797;1090;102879;-81
2021/07/04 05:00:12;;;;;;;19.47;15.50;;;;;;;19.13;78.68;99649.77;126739;1088;113615;-81
2021/07/04 05:03:06;;;;;;;19.30;15.77;;;;;;;19.21;78.47;99642.95;126840;1090;100414;-81
2021/07/04 05:05:54;;;;;;;19.37;15.53;;;;;;;19.27;78.43;99647.75;126544;1089;114620;-81
2021/07/04 05:08:42;;;;;;;22.83;15.73;;;;;;;19.35;78.23;99648.94;126699;1090;102862;-81
2021/07/04 05:11:30;;;;;;;20.07;15.90;;;;;;;19.43;78.13;99652.69;126584;1090;103033;-81
2021/07/04 05:14:18;;;;;;;18.03;16.07;;;;;;;19.53;77.66;99658.08;126615;1089;114425;-81
2021/07/04 05:17:07;;;;;;;20.03;16.40;;;;;;;19.60;77.78;99661.98;126634;1089;102844;-81
2021/07/04 05:19:54;;;;;;;20.80;15.50;;;;;;;19.68;77.44;99656.07;126643;1089;113980;-81
2021/07/04 05:22:42;;;;;;;20.23;15.97;;;;;;;19.72;77.17;99663.63;126785;1088;103036;-81
2021/07/04 05:25:31;;;;;;;18.13;15.87;;;;;;;19.74;77.14;99667.00;126595;1090;114621;-81
2021/07/04 05:28:20;;;;;;;19.67;16.17;;;;;;;19.77;76.96;99664.13;126674;1089;103393;-81
2021/07/04 05:31:09;;;;;;;21.60;16.43;;;;;;;19.79;77.17;99662.20;126593;1090;114623;-81
2021/07/04 05:33:56;;;;;;;;;;;;;;;19.87;76.71;99667.72;126668;1089;101073;-81
2021/07/04 05:36:47;;;;;;;18.23;15.87;;;;;;;19.95;76.72;99663.63;126445;1090;102721;-81
2021/07/04 05:39:35;;;;;;;23.30;17.33;;;;;;;20.06;77.01;99666.23;126671;1090;102852;-80
2021/07/04 05:42:23;;;;;;;19.23;16.47;;;;;;;20.15;76.60;99676.11;126582;1090;114637;-80
2021/07/04 05:45:16;;;;;;;22.00;16.20;;;;;;;20.18;75.95;99668.75;126861;1089;102889;-80
2021/07/04 05:48:04;;;;;;;19.20;14.13;;;;;;;20.26;76.12;99675.21;126699;1090;114630;-80
2021/07/04 05:50:52;;;;;;;18.80;15.53;;;;;;;20.33;75.99;99671.96;126674;1089;103010;-81
2021/07/04 05:53:41;;;;;;;17.17;15.30;;;;;;;20.38;75.88;99667.13;126850;1089;103039;-81
2021/07/04 05:56:30;;;;;;;19.13;16.07;;;;;;;20.39;75.56;99666.15;126558;1090;113456;-81
2021/07/04 05:59:18;;;;;;;20.07;15.80;;;;;;;20.40;75.40;99675.78;126788;1090;102912;-80
2021/07/04 06:02:05;;;;;;;18.50;14.53;;;;;;;20.45;75.67;99672.77;126611;1090;114629;-81
2021/07/04 06:04:53;;;;;;;18.53;14.77;;;;;;;20.44;75.13;99665.80;126640;1090;102666;-81
2021/07/04 06:07:40;;;;;;;20.67;15.90;;;;;;;20.43;75.41;99664.95;126593;1090;114508;-81
2021/07/04 06:10:28;;;;;;;19.80;15.77;;;;;;;20.48;74.97;99676.04;126630;1089;103071;-80
2021/07/04 06:13:17;;;;;;;20.40;15.80;;;;;;;20.57;75.46;99681.53;126563;1090;114704;-80
2021/07/04 06:16:05;;;;;;;17.03;14.33;;;;;;;20.66;75.26;99667.54;126598;1090;101625;-80
2021/07/04 06:18:53;;;;;;;18.50;14.10;;;;;;;20.73;74.82;99664.23;126463;1089;114673;-81
2021/07/04 06:21:41;;;;;;;15.30;13.57;;;;;;;20.75;74.76;99664.11;126682;1089;102911;-81
2021/07/04 06:24:28;;;;;;;18.30;14.53;;;;;;;20.80;74.96;99662.74;126583;1090;113607;-80
2021/07/04 06:27:17;;;;;;;16.00;13.47;;;;;;;20.90;74.73;99670.78;126826;1090;103000;-79
2021/07/04 06:30:08;;;;;;;17.03;13.47;;;;;;;20.98;74.45;99670.13;126592;1088;103004;-80
2021/07/04 06:32:56;;;;;;;17.70;14.10;;;;;;;21.01;74.22;99665.42;126607;1089;103008;-80
2021/07/04 06:35:44;;;;;;;18.67;14.33;;;;;;;21.08;73.94;99669.23;126619;1090;102856;-80
2021/07/04 06:38:31;;;;;;;16.23;13.80;;;;;;;21.17;73.62;99677.36;126474;1089;114671;-80
2021/07/04 06:41:19;;;;;;;14.67;13.10;;;;;;;21.15;73.60;99676.65;126596;1089;102850;-80
2021/07/04 06:44:07;;;;;;;15.90;12.63;;;;;;;21.11;73.50;99676.08;126528;1088;114496;-81
2021/07/04 06:46:54;;;;;;;15.10;13.27;;;;;;;21.06;73.49;99676.47;126596;1090;103028;-81
2021/07/04 06:49:42;;;;;;;14.13;12.10;;;;;;;21.02;73.31;99672.41;126580;1090;114481;-81
2021/07/04 06:52:30;;;;;;;14.43;12.87;;;;;;;20.94;72.65;99674.84;126638;1090;103041;-81
2021/07/04 06:55:20;;;;;;;14.83;12.50;;;;;;;20.85;73.26;99670.34;126598;1089;114881;-80
2021/07/04 06:58:09;;;;;;;16.87;12.90;;;;;;;20.86;73.46;99672.02;126678;1089;103055;-80
2021/07/04 07:00:56;;;;;;;14.93;12.90;;;;;;;20.85;73.51;99667.69;126667;1090;114867;-80
2021/07/04 07:03:44;;;;;;;14.63;12.83;;;;;;;20.87;73.70;99676.34;126641;1089;102945;-81
2021/07/04 07:06:32;;;;;;;16.47;14.13;;;;;;;20.93;73.16;99673.17;126566;1090;114678;-81
2021/07/04 07:09:22;;;;;;;16.03;12.90;;;;;;;20.92;73.24;99678.59;126614;1090;102925;-81
2021/07/04 07:12:09;;;;;;;13.63;12.23;;;;;;;20.92;72.91;99681.25;126641;1090;102988;-81
2021/07/04 07:14:57;;;;;;;15.53;13.00;;;;;;;20.92;73.30;99682.09;126506;1089;114378;-81
2021/07/04 07:17:45;;;;;;;15.30;12.20;;;;;;;20.90;73.03;99678.73;126722;1090;102663;-80
2021/07/04 07:20:37;;;;;;;14.77;13.17;;;;;;;20.88;72.69;99685.98;126557;1090;114626;-80
2021/07/04 07:23:25;;;;;;;13.73;11.90;;;;;;;20.84;73.11;99679.26;126645;1089;103032;-80
2021/07/04 07:26:13;;;;;;;13.87;11.93;;;;;;;20.84;73.24;99678.42;126585;1089;115097;-80
2021/07/04 07:29:01;;;;;;;16.37;13.47;;;;;;;20.88;73.62;99683.33;126618;1089;102866;-81
2021/07/04 07:31:49;;;;;;;16.83;12.97;;;;;;;20.94;73.31;99680.15;126566;1089;114650;-81
2021/07/04 07:34:37;;;;;;;13.97;12.33;;;;;;;21.02;73.20;99677.71;126640;1089;102945;-81
2021/07/04 07:37:26;;;;;;;13.70;12.27;;;;;;;21.11;72.90;99670.77;126698;1090;114987;-81
2021/07/04 07:40:14;;;;;;;13.03;11.50;;;;;;;21.19;73.06;99678.09;126603;1090;101818;-81
2021/07/04 07:43:11;;;;;;;15.73;12.23;;;;;;;21.25;72.30;99680.25;126518;1090;114755;-81
2021/07/04 07:46:01;;;;;;;14.23;12.37;;;;;;;21.24;71.89;99667.92;126708;1089;102883;-81
2021/07/04 07:48:48;;;;;;;14.83;12.00;;;;;;;21.22;71.96;99678.67;126543;1089;114851;-81
2021/07/04 07:52:11;;;;;;;14.00;12.50;;;;;;;21.31;71.87;99666.45;126706;1089;102910;-81
2021/07/04 07:55:01;;;;;;;14.10;11.87;;;;;;;21.42;72.16;99669.03;126704;1089;114815;-81
2021/07/04 07:57:49;;;;;;;13.50;11.23;;;;;;;21.49;71.57;99662.20;126643;1090;103260;-80
2021/07/04 08:00:36;;;;;;;15.27;12.10;;;;;;;21.57;71.58;99665.05;126682;1090;102671;-81
2021/07/04 08:03:24;;;;;;;12.70;11.40;;;;;;;21.63;71.66;99659.20;126810;1090;102974;-81
2021/07/04 08:06:13;;;;;;;13.83;11.73;;;;;;;21.65;71.34;99670.52;126694;1090;102888;-79
2021/07/04 08:09:03;;;;;;;14.83;11.57;;;;;;;21.70;70.78;99657.68;126524;1089;114500;-82
2021/07/04 08:12:06;;;;;;;12.93;11.50;;;;;;;21.75;70.54;99659.95;126585;1090;102850;-81
2021/07/04 08:14:59;;;;;;;12.63;11.37;;;;;;;21.84;70.89;99660.95;126585;1089;114664;-79
2021/07/04 08:17:47;;;;;;;13.13;11.83;;;;;;;21.83;70.00;99667.23;126627;1090;102889;-79
2021/07/04 08:20:36;;;;;;;13.83;11.27;;;;;;;21.82;70.39;99670.86;126684;1088;113530;-79
2021/07/04 08:23:24;;;;;;;13.70;11.50;;;;;;;21.82;70.38;99669.05;126587;1089;102902;-79
2021/07/04 08:26:17;;;;;;;17.00;11.53;;;;;;;21.90;70.16;99669.23;126490;1090;114701;-79
2021/07/04 08:29:05;;;;;;;12.83;10.67;;;;;;;21.97;69.86;99664.20;126676;1089;103038;-80
2021/07/04 08:31:53;;;;;;;12.60;11.03;;;;;;;21.99;69.98;99662.25;126495;1090;114689;-79
2021/07/04 08:34:40;;;;;;;12.23;10.77;;;;;;;22.10;69.96;99663.99;126666;1090;102908;-79
2021/07/04 08:37:28;;;;;;;14.80;11.07;;;;;;;22.29;69.86;99664.86;126537;1090;114759;-79
2021/07/04 08:40:17;;;;;;;12.40;10.53;;;;;;;22.49;69.04;99660.40;126653;1090;102947;-81
2021/07/04 08:43:05;;;;;;;11.43;10.23;;;;;;;22.62;68.17;99660.09;126510;1090;114651;-79
2021/07/04 08:45:53;;;;;;;12.63;10.40;;;;;;;22.73;68.01;99651.16;126673;1090;102866;-79
2021/07/04 08:48:41;;;;;;;11.23;10.03;;;;;;;22.81;68.25;99660.11;126639;1088;102894;-81
2021/07/04 08:51:29;;;;;;;11.03;9.93;;;;;;;22.88;67.46;99647.95;126684;1088;114342;-79
2021/07/04 08:54:17;;;;;;;10.83;9.70;;;;;;;22.98;67.31;99653.27;126531;1090;102747;-79
2021/07/04 08:57:08;;;;;;;11.07;9.90;;;;;;;23.07;67.07;99659.53;126553;1090;114294;-78
2021/07/04 08:59:57;;;;;;;14.20;9.97;;;;;;;23.20;66.93;99654.75;126653;1090;103419;-79
2021/07/04 09:02:45;;;;;;;11.33;9.80;;;;;;;23.49;66.80;99654.64;126520;1090;114462;-79
2021/07/04 09:05:43;;;;;;;11.17;9.40;;;;;;;23.82;66.24;99647.94;126735;1090;102997;-79
2021/07/04 09:08:31;;;;;;;11.93;10.73;;;;;;;24.05;65.03;99643.86;126500;1089;114272;-79
2021/07/04 09:11:19;;;;;;;10.67;9.57;;;;;;;24.30;65.10;99650.34;126616;1089;102849;-79
2021/07/04 09:14:07;;;;;;;9.80;8.80;;;;;;;24.66;64.81;99645.84;126641;1090;114523;-79
2021/07/04 09:16:56;;;;;;;9.83;8.93;;;;;;;24.97;64.21;99643.59;126650;1090;102876;-79
2021/07/04 09:19:59;;;;;;;10.43;9.17;;;;;;;25.13;63.63;99636.69;126568;1090;114437;-79
2021/07/04 09:22:52;;;;;;;10.80;9.57;;;;;;;25.28;62.79;99635.12;126607;1090;102728;-79
2021/07/04 09:25:40;;;;;;;11.17;9.50;;;;;;;25.39;62.34;99632.19;126538;1090;114463;-79
2021/07/04 09:28:29;;;;;;;10.43;9.40;;;;;;;25.52;62.02;99629.09;126623;1087;102863;-79
2021/07/04 09:31:19;;;;;;;10.17;8.63;;;;;;;25.57;62.05;99634.78;126613;1089;114470;-80
2021/07/04 09:34:10;;;;;;;10.10;9.00;;;;;;;25.65;61.50;99625.95;126571;1089;102887;-79
2021/07/04 09:36:58;;;;;;;10.53;9.47;;;;;;;25.72;61.60;99627.87;126576;1090;103079;-79
2021/07/04 09:39:46;;;;;;;11.33;10.20;;;;;;;25.88;61.15;99622.58;126506;1088;113344;-79
2021/07/04 09:42:34;;;;;;;11.83;10.67;;;;;;;26.06;61.14;99624.30;126615;1090;102859;-79
2021/07/04 09:45:24;;;;;;;11.33;10.03;;;;;;;26.27;60.42;99616.64;126568;1089;113427;-79
2021/07/04 09:48:15;;;;;;;10.13;9.13;;;;;;;26.55;60.35;99613.67;126616;1089;103119;-79
2021/07/04 09:51:25;;;;;;;9.63;8.67;;;;;;;26.94;59.34;99603.14;126634;1090;113299;-78
2021/07/04 09:54:13;;;;;;;9.03;8.20;;;;;;;27.45;59.05;99595.64;126632;1089;103036;-79
2021/07/04 09:57:05;;;;;;;11.40;8.63;;;;;;;27.74;57.90;99597.73;126584;1089;114478;-79
2021/07/04 10:00:17;;;;;;;8.97;8.13;;;;;;;27.92;57.34;99595.63;126584;1090;103194;-79
2021/07/04 10:03:11;;;;;;;9.43;8.43;;;;;;;28.37;57.14;99591.31;126574;1089;115488;-80
2021/07/04 10:06:02;;;;;;;9.10;8.20;;;;;;;29.05;56.39;99590.39;126600;1090;103034;-79
2021/07/04 10:08:49;;;;;;;9.60;8.30;;;;;;;29.65;55.76;99589.39;126502;1090;114301;-80
2021/07/04 10:11:37;;;;;;;8.60;7.30;;;;;;;30.14;54.00;99581.48;126693;1090;102921;-79
2021/07/04 10:14:25;;;;;;;9.10;8.20;;;;;;;30.18;52.35;99576.57;126562;1090;114194;-79
2021/07/04 10:17:14;;;;;;;8.23;7.40;;;;;;;30.02;51.60;99575.76;126716;1090;102903;-79
2021/07/04 10:20:04;;;;;;;8.30;7.07;;;;;;;29.84;51.21;99564.59;126493;1089;114455;-79
2021/07/04 10:22:51;;;;;;;8.27;7.57;;;;;;;29.87;51.47;99564.21;126632;1089;102642;-79
2021/07/04 10:25:42;;;;;;;7.77;6.97;;;;;;;29.86;51.29;99567.92;126687;1090;113244;-79
2021/07/04 10:28:36;;;;;;;14.10;7.27;;;;;;;29.86;50.80;99562.55;126596;1089;103311;-81
2021/07/04 10:31:30;;;;;;;9.00;7.60;;;;;;;29.77;50.69;99553.75;126659;1090;102901;-80
2021/07/04 10:34:19;;;;;;;9.00;7.37;;;;;;;29.78;50.59;99551.89;126698;1090;102983;-79
2021/07/04 10:37:07;;;;;;;9.20;7.30;;;;;;;29.92;50.95;99556.41;126644;1089;102876;-79
2021/07/04 10:40:14;;;;;;;8.37;7.40;;;;;;;30.15;50.50;99552.72;126455;1088;114119;-80
2021/07/04 10:43:02;;;;;;;8.13;7.33;;;;;;;30.21;49.96;99549.28;126805;1089;103042;-79
2021/07/04 10:45:50;;;;;;;7.73;6.97;;;;;;;30.29;49.44;99546.45;126509;1088;114482;-79
2021/07/04 10:48:56;;;;;;;7.47;6.53;;;;;;;30.26;49.23;99542.29;126563;1090;103491;-79
2021/07/04 10:51:58;;;;;;;8.27;6.97;;;;;;;30.34;48.58;99541.31;126516;1089;114059;-79
2021/07/04 10:54:47;;;;;;;8.13;7.07;;;;;;;30.42;48.64;99541.19;126795;1089;102852;-79
2021/07/04 10:57:50;;;;;;;9.73;6.77;;;;;;;30.63;48.62;99533.10;126501;1090;114300;-81
2021/07/04 11:00:48;;;;;;;7.47;6.60;;;;;;;30.93;48.40;99530.20;126762;1090;102851;-81
2021/07/04 11:03:37;;;;;;;7.80;6.47;;;;;;;31.17;47.54;99531.56;126670;1090;114201;-81
2021/07/04 11:07:11;;;;;;;8.93;6.90;;;;;;;31.22;47.28;99526.44;126808;1090;102850;-80
2021/07/04 11:10:01;;;;;;;15.47;6.50;;;;;;;31.16;46.63;99516.44;126643;1090;114350;-81
2021/07/04 11:12:54;;;;;;;7.27;6.00;;;;;;;31.19;46.58;99519.59;126692;1088;104145;-81
2021/07/04 11:15:51;;;;;;;7.17;6.27;;;;;;;31.14;46.47;99513.12;126533;1090;114347;-81
2021/07/04 11:18:46;;;;;;;8.77;6.50;;;;;;;31.01;46.27;99518.42;126640;1089;103007;-81
2021/07/04 11:21:50;;;;;;;9.33;6.63;;;;;;;31.10;46.19;99515.39;126587;1090;114296;-82
2021/07/04 11:24:38;;;;;;;7.33;6.03;;;;;;;31.19;45.51;99513.38;126656;1090;102871;-81
2021/07/04 11:27:28;;;;;;;6.50;5.90;;;;;;;31.28;45.79;99514.05;126472;1090;114243;-81
2021/07/04 11:30:26;;;;;;;8.40;6.53;;;;;;;31.40;45.11;99509.73;126667;1088;102863;-79
2021/07/04 11:33:40;;;;;;;7.90;6.93;;;;;;;31.55;44.49;99507.71;126653;1090;113174;-81
2021/07/04 11:36:30;;;;;;;8.60;6.70;;;;;;;31.55;44.63;99513.09;126910;1089;102828;-81
2021/07/04 11:39:18;;;;;;;7.43;6.63;;;;;;;31.32;44.18;99510.75;126653;1089;113360;-81
2021/07/04 11:42:06;;;;;;;6.90;6.20;;;;;;;30.98;44.62;99506.20;126778;1089;101826;-80
2021/07/04 11:44:53;;;;;;;9.03;6.90;;;;;;;30.67;44.88;99499.38;126566;1088;113150;-81
2021/07/04 11:47:57;;;;;;;8.50;6.90;;;;;;;30.39;45.25;99503.91;126807;1089;101074;-81
2021/07/04 11:50:53;;;;;;;7.40;6.10;;;;;;;30.11;45.64;99501.19;126578;1090;113349;-80
2021/07/04 11:53:48;;;;;;;7.60;6.50;;;;;;;29.89;45.93;99499.50;126664;1089;102948;-80
2021/07/04 11:56:39;;;;;;;8.33;6.90;;;;;;;29.86;46.56;99489.97;126624;1090;114266;-80
2021/07/04 11:59:30;;;;;;;7.20;6.50;;;;;;;29.89;46.51;99489.58;126692;1090;102950;-80
2021/07/04 12:02:18;;;;;;;8.73;6.90;;;;;;;29.90;46.19;99485.03;126688;1088;114499;-81
2021/07/04 12:05:11;;;;;;;9.53;6.97;;;;;;;29.93;46.49;99471.20;126628;1090;102924;-80
2021/07/04 12:07:59;;;;;;;7.75;6.35;;;;;;;30.03;46.75;99477.93;126629;1090;102852;-80
2021/07/04 12:10:52;;;;;;;9.00;6.70;;;;;;;30.08;46.12;99472.83;126696;1088;102884;-80
2021/07/04 12:13:44;;;;;;;7.30;6.67;;;;;;;30.18;45.95;99479.75;126753;1090;102963;-80
2021/07/04 12:16:37;;;;;;;7.77;6.90;;;;;;;30.17;46.21;99484.30;126598;1089;114109;-80
2021/07/04 12:19:34;;;;;;;5.63;5.10;;;;;;;29.85;43.69;99490.16;126742;1089;102910;-81
2021/07/04 12:22:29;;;;;;;4.70;3.60;;;;;;;29.31;44.06;99502.14;126601;1088;114160;-80
2021/07/04 12:25:33;;;;;;;4.20;3.53;;;;;;;28.71;43.79;99492.41;126755;1089;101655;-81
2021/07/04 12:28:23;;;;;;;3.40;2.90;;;;;;;28.08;44.55;99488.30;126724;1089;114095;-80
2021/07/04 12:31:15;;;;;;;4.53;3.10;;;;;;;27.58;45.24;99489.62;126694;1090;103024;-80
2021/07/04 12:34:04;;;;;;;6.23;3.37;;;;;;;27.07;46.38;99491.88;126634;1090;114341;-81
2021/07/04 12:36:52;;;;;;;3.93;3.57;;;;;;;26.56;46.99;99484.30;126617;1090;102880;-80
2021/07/04 12:39:45;;;;;;;4.57;3.87;;;;;;;25.99;48.17;99486.99;126625;1090;115254;-80
2021/07/04 12:42:34;;;;;;;3.90;3.57;;;;;;;25.59;49.74;99496.59;126755;1089;102950;-81
2021/07/04 12:45:25;;;;;;;4.17;3.50;;;;;;;25.21;51.18;99505.99;126588;1090;114140;-80
2021/07/04 12:48:14;;;;;;;4.73;3.90;;;;;;;24.85;51.86;99500.80;126839;1090;103004;-79
2021/07/04 12:51:05;;;;;;;4.60;4.17;;;;;;;24.54;52.66;99499.59;126597;1089;114335;-80
2021/07/04 12:53:53;;;;;;;5.17;3.77;;;;;;;24.26;53.84;99493.55;126649;1089;103344;-80
2021/07/04 12:56:45;;;;;;;5.00;4.00;;;;;;;23.90;54.41;99487.42;126615;1089;114442;-80
2021/07/04 12:59:33;;;;;;;6.65;4.05;;;;;;;23.58;55.56;99494.09;126648;1089;103010;-80